Saint Marys, Indiana
Current Conditions -  °F | °C
As of 7:54 AM on Friday 31 Oct 2014 (Local Time) from KSBN Reporting Station
Light Rain Light Rain  
Wind Chill: 33°   Ceiling: 1900
Heat Index: 41°   Visibility: 10mi
Dew Point: 37°   Wind: 14mph
Humidity: 86%   Direction: 330°NNW
Pressure: 29.98"   Gusts: NA
Location:  41.7197°N, 86.2504°W
Report Text: KSBN 311154Z 33012KT 10SM -RA BKN019 BKN024 OVC031 05/03 A2998 RMK AO2 SLP157 P0003 60009 70009 T00500028 10072 20050 51005
Loading
Personal Weather Stations






























Interactive Weather Map New forecast layout! Learn more

10-Day Weather Forecast

Advertisements
Track Severe Weather on mobile